createdAt,value
2023-03-21T00:01:52.280Z,12.32
2023-03-21T00:04:20.984Z,12.56
2023-03-21T00:06:48.952Z,12.36
2023-03-21T00:09:16.563Z,12.65
2023-03-21T00:11:44.328Z,12.74
2023-03-21T00:14:14.562Z,13.10
2023-03-21T00:16:45.856Z,13.30
2023-03-21T00:19:14.562Z,12.80
2023-03-21T00:22:05.810Z,12.94
2023-03-21T00:24:30.917Z,13.15
2023-03-21T00:27:15.897Z,13.15
2023-03-21T00:29:46.792Z,12.93
2023-03-21T00:32:14.229Z,12.71
2023-03-21T00:34:59.600Z,13.08
2023-03-21T00:37:30.139Z,13.19
2023-03-21T00:39:57.529Z,12.68
2023-03-21T00:42:25.044Z,12.86
2023-03-21T00:44:52.643Z,12.60
2023-03-21T00:47:20.645Z,12.63
2023-03-21T00:49:50.311Z,12.68
2023-03-21T00:52:27.551Z,13.01
2023-03-21T00:55:02.265Z,13.10
2023-03-21T00:57:38.698Z,12.40
2023-03-21T01:00:10.664Z,12.11
2023-03-21T01:02:38.721Z,12.23
2023-03-21T01:05:06.510Z,11.99
2023-03-21T01:07:33.865Z,11.66
2023-03-21T01:10:01.500Z,12.63
2023-03-21T01:12:28.883Z,12.02
2023-03-21T01:14:57.674Z,12.49
2023-03-21T01:17:25.281Z,12.49
2023-03-21T01:19:52.724Z,11.71
2023-03-21T01:22:20.189Z,11.74
2023-03-21T01:24:55.584Z,11.46
2023-03-21T01:27:27.936Z,11.86
2023-03-21T01:29:55.807Z,11.75
2023-03-21T01:32:23.392Z,12.35
2023-03-21T01:34:50.960Z,12.57
2023-03-21T01:37:19.994Z,12.88
2023-03-21T01:39:47.920Z,12.63
2023-03-21T01:42:15.556Z,12.23
2023-03-21T01:44:57.244Z,12.69
2023-03-21T01:47:25.786Z,12.31
2023-03-21T01:49:56.668Z,11.97
2023-03-21T01:52:36.376Z,12.35
2023-03-21T01:55:07.089Z,12.58
2023-03-21T01:57:51.867Z,12.81
2023-03-21T02:00:25.053Z,12.26
2023-03-21T02:03:06.099Z,12.47
2023-03-21T02:05:44.439Z,12.11
2023-03-21T02:08:13.278Z,12.13
2023-03-21T02:10:42.799Z,12.33
2023-03-21T02:13:11.597Z,12.32
2023-03-21T02:15:41.355Z,11.78
2023-03-21T02:18:44.272Z,12.33
2023-03-21T02:21:33.389Z,11.66
2023-03-21T02:24:20.942Z,11.62
2023-03-21T02:27:04.726Z,11.72
2023-03-21T02:29:54.421Z,12.03
2023-03-21T02:32:41.515Z,11.56
2023-03-21T02:35:12.133Z,11.57
2023-03-21T02:37:51.975Z,12.00
2023-03-21T02:40:40.031Z,11.84
2023-03-21T02:43:22.560Z,11.96
2023-03-21T02:45:53.906Z,11.86
2023-03-21T02:48:50.242Z,12.14
2023-03-21T02:51:22.175Z,12.01
2023-03-21T02:54:16.179Z,12.27
2023-03-21T02:56:40.470Z,11.80
2023-03-21T02:59:08.122Z,11.74
2023-03-21T03:01:35.749Z,12.17
2023-03-21T03:04:03.540Z,11.48
2023-03-21T03:07:09.539Z,12.33
2023-03-21T03:10:13.296Z,12.25
2023-03-21T03:12:54.441Z,12.25
2023-03-21T03:15:41.866Z,12.10
2023-03-21T03:18:31.330Z,11.99
2023-03-21T03:21:08.679Z,12.41
2023-03-21T03:23:48.997Z,12.35
2023-03-21T03:26:27.065Z,12.35
2023-03-21T03:28:58.940Z,12.63
2023-03-21T03:32:03.741Z,12.70
2023-03-21T03:34:34.480Z,12.71
2023-03-21T03:37:04.543Z,12.47
2023-03-21T03:39:36.217Z,12.27
2023-03-21T03:42:28.714Z,12.28
2023-03-21T03:44:57.033Z,12.81
2023-03-21T03:47:56.052Z,12.91
2023-03-21T03:51:01.314Z,12.61
2023-03-21T03:53:32.586Z,12.44
2023-03-21T03:56:00.212Z,12.33
2023-03-21T03:58:39.777Z,12.42
2023-03-21T04:01:14.014Z,12.43
2023-03-21T04:03:49.847Z,12.58
2023-03-21T04:06:18.996Z,12.40
2023-03-21T04:08:47.160Z,12.40
2023-03-21T04:11:15.940Z,12.17
2023-03-21T04:13:45.397Z,12.67
2023-03-21T04:16:14.280Z,12.15
2023-03-21T04:18:42.437Z,12.44
2023-03-21T04:21:10.840Z,11.75
2023-03-21T04:23:39.236Z,11.90
2023-03-21T04:26:06.632Z,12.01
2023-03-21T04:28:36.134Z,12.63
2023-03-21T04:31:16.146Z,12.64
2023-03-21T04:33:52.026Z,12.51
2023-03-21T04:36:28.719Z,12.02
2023-03-21T04:39:00.797Z,12.44
2023-03-21T04:41:28.862Z,12.51
2023-03-21T04:43:57.399Z,12.34
2023-03-21T04:46:24.791Z,12.67
2023-03-21T04:48:52.401Z,12.41
2023-03-21T04:51:19.949Z,11.72
2023-03-21T04:53:49.381Z,12.07
2023-03-21T04:56:17.080Z,11.48
2023-03-21T04:58:45.366Z,12.21
2023-03-21T05:01:14.618Z,11.83
2023-03-21T05:03:42.494Z,11.93
2023-03-21T05:06:10.271Z,12.13
2023-03-21T05:08:37.712Z,12.70
2023-03-21T05:11:05.599Z,12.62
2023-03-21T05:13:33.199Z,12.33
2023-03-21T05:16:00.582Z,12.26
2023-03-21T05:18:28.433Z,12.55
2023-03-21T05:20:56.891Z,12.36
2023-03-21T05:23:24.366Z,12.62
2023-03-21T05:25:52.611Z,12.65
2023-03-21T05:28:20.972Z,12.90
2023-03-21T05:30:49.040Z,12.59
2023-03-21T05:33:17.051Z,12.54
2023-03-21T05:35:44.610Z,13.03
2023-03-21T05:38:12.614Z,13.05
2023-03-21T05:40:48.429Z,12.43
2023-03-21T05:43:15.799Z,12.80
2023-03-21T05:45:43.443Z,12.63
2023-03-21T05:48:11.518Z,12.86
2023-03-21T05:50:42.248Z,13.01
2023-03-21T05:53:10.623Z,12.82
2023-03-21T05:55:39.176Z,13.04
2023-03-21T05:58:08.035Z,13.01
2023-03-21T06:00:35.576Z,13.19
2023-03-21T06:03:04.394Z,13.13
2023-03-21T06:05:32.791Z,12.96
2023-03-21T06:08:00.298Z,13.02
2023-03-21T06:10:28.051Z,13.39
2023-03-21T06:12:55.487Z,13.76
2023-03-21T06:15:23.563Z,13.49
2023-03-21T06:17:51.618Z,13.16
2023-03-21T06:20:19.084Z,13.79
2023-03-21T06:22:46.675Z,14.05
2023-03-21T06:25:14.371Z,13.77
2023-03-21T06:27:41.795Z,14.10
2023-03-21T06:30:09.738Z,14.37
2023-03-21T06:32:37.783Z,14.04
2023-03-21T06:35:07.383Z,14.62
2023-03-21T06:37:34.840Z,13.79
2023-03-21T06:40:04.602Z,14.61
2023-03-21T06:42:32.642Z,14.61
2023-03-21T06:45:00.451Z,14.13
2023-03-21T06:47:28.316Z,13.89
2023-03-21T06:49:56.158Z,14.22
2023-03-21T06:52:23.560Z,13.77
2023-03-21T06:54:53.594Z,13.73
2023-03-21T06:57:21.996Z,13.24
2023-03-21T06:59:49.747Z,13.77
2023-03-21T07:02:18.354Z,13.85
2023-03-21T07:04:46.089Z,13.61
2023-03-21T07:07:14.190Z,13.82
2023-03-21T07:09:42.213Z,13.36
2023-03-21T07:12:10.571Z,13.46
2023-03-21T07:14:40.575Z,13.63
2023-03-21T07:17:08.276Z,13.41
2023-03-21T07:19:35.684Z,13.74
2023-03-21T07:22:03.041Z,13.85
2023-03-21T07:24:30.660Z,13.99
2023-03-21T07:26:58.044Z,13.75
2023-03-21T07:29:26.570Z,13.71
2023-03-21T07:31:54.268Z,13.66
2023-03-21T07:34:22.828Z,13.76
2023-03-21T07:36:51.005Z,13.85
2023-03-21T07:39:20.525Z,13.84
2023-03-21T07:41:47.990Z,13.94
2023-03-21T07:44:18.289Z,14.18
2023-03-21T07:46:45.922Z,14.54
2023-03-21T07:49:13.293Z,14.20
2023-03-21T07:51:40.815Z,14.61
2023-03-21T07:54:08.479Z,14.87
2023-03-21T07:56:36.397Z,14.93
2023-03-21T07:59:05.364Z,15.28
2023-03-21T08:01:33.079Z,15.08
2023-03-21T08:04:00.685Z,14.80
2023-03-21T08:06:28.539Z,15.03
2023-03-21T08:08:55.996Z,15.28
2023-03-21T08:11:24.651Z,15.29
2023-03-21T08:13:52.013Z,15.15
2023-03-21T08:16:19.574Z,15.28
2023-03-21T08:18:47.321Z,15.05
2023-03-21T08:21:14.679Z,15.09
2023-03-21T08:23:42.161Z,15.29
2023-03-21T08:26:10.396Z,15.08
2023-03-21T08:28:39.625Z,14.94
2023-03-21T08:31:08.869Z,15.23
2023-03-21T08:33:37.176Z,15.23
2023-03-21T08:36:05.391Z,15.01
2023-03-21T08:38:33.598Z,15.68
2023-03-21T08:41:01.351Z,15.21
2023-03-21T08:43:29.123Z,15.26
2023-03-21T08:45:56.628Z,15.44
2023-03-21T08:48:24.592Z,15.91
2023-03-21T08:50:51.989Z,16.06
2023-03-21T08:53:19.374Z,15.60
2023-03-21T08:55:47.057Z,15.70
2023-03-21T08:58:14.453Z,15.83
2023-03-21T09:00:41.845Z,15.80
2023-03-21T09:03:11.621Z,15.91
2023-03-21T09:05:39.492Z,15.94
2023-03-21T09:08:07.254Z,15.88
2023-03-21T09:10:34.854Z,15.69
2023-03-21T09:13:02.217Z,16.12
2023-03-21T09:15:29.800Z,16.04
2023-03-21T09:17:58.862Z,15.18
2023-03-21T09:20:31.037Z,15.30
2023-03-21T09:22:59.208Z,14.87
2023-03-21T09:25:31.290Z,15.34
2023-03-21T09:28:00.577Z,15.36
2023-03-21T09:30:29.504Z,15.40
2023-03-21T09:32:56.970Z,15.49
2023-03-21T09:35:24.869Z,15.67
2023-03-21T09:37:52.585Z,15.76
2023-03-21T09:40:43.004Z,15.78
2023-03-21T09:43:35.845Z,16.30
2023-03-21T09:46:09.161Z,16.90
2023-03-21T09:48:56.102Z,16.99
2023-03-21T09:51:26.190Z,16.42
2023-03-21T09:53:56.556Z,16.91
2023-03-21T09:56:26.045Z,16.58
2023-03-21T09:58:56.021Z,16.96
2023-03-21T10:01:30.058Z,16.66
2023-03-21T10:04:01.095Z,16.69
2023-03-21T10:06:30.383Z,16.77
2023-03-21T10:09:09.734Z,16.77
2023-03-21T10:11:44.284Z,16.34
2023-03-21T10:14:21.771Z,16.54
2023-03-21T10:16:56.730Z,16.44
2023-03-21T10:19:24.395Z,16.18
2023-03-21T10:22:00.739Z,16.06
2023-03-21T10:24:29.805Z,15.87
2023-03-21T10:26:57.208Z,16.33
2023-03-21T10:29:27.668Z,16.27
2023-03-21T10:31:55.818Z,16.30
2023-03-21T10:34:36.729Z,16.39
2023-03-21T10:37:04.521Z,16.78
2023-03-21T10:39:38.667Z,16.65
2023-03-21T10:42:06.741Z,16.58
2023-03-21T10:44:35.166Z,16.97
2023-03-21T10:47:07.226Z,16.78
2023-03-21T10:49:56.345Z,16.42
2023-03-21T10:52:27.483Z,16.18
2023-03-21T10:55:24.320Z,16.68
2023-03-21T10:57:54.015Z,17.00
2023-03-21T11:00:23.117Z,16.62
2023-03-21T11:02:51.383Z,16.90
2023-03-21T11:05:23.231Z,16.60
2023-03-21T11:08:01.409Z,16.63
2023-03-21T11:10:38.064Z,16.59
2023-03-21T11:13:08.190Z,16.81
2023-03-21T11:15:49.055Z,16.28
2023-03-21T11:18:22.275Z,16.77
2023-03-21T11:20:52.493Z,16.84
2023-03-21T11:23:20.938Z,16.93
2023-03-21T11:25:51.688Z,17.15
2023-03-21T11:28:23.484Z,17.07
2023-03-21T11:30:56.540Z,16.62
2023-03-21T11:33:33.440Z,17.08
2023-03-21T11:36:24.534Z,17.43
2023-03-21T11:39:01.119Z,17.18
2023-03-21T11:41:30.632Z,17.20
2023-03-21T11:43:58.442Z,16.87
2023-03-21T11:46:30.848Z,16.87
2023-03-21T11:48:58.902Z,17.41
2023-03-21T11:51:44.436Z,17.55
2023-03-21T11:54:17.913Z,17.23
2023-03-21T11:56:52.067Z,17.95
2023-03-21T11:59:58.151Z,17.26
2023-03-21T12:02:51.586Z,17.14
2023-03-21T12:05:21.845Z,17.87
2023-03-21T12:07:52.237Z,18.12
2023-03-21T12:10:58.071Z,17.84
2023-03-21T12:13:49.192Z,18.39
2023-03-21T12:16:57.707Z,18.05
2023-03-21T12:19:40.359Z,17.94
2023-03-21T12:22:17.708Z,18.27
2023-03-21T12:24:56.179Z,17.92
2023-03-21T12:27:51.303Z,18.02
2023-03-21T12:30:32.401Z,17.60
2023-03-21T12:33:18.281Z,17.87
2023-03-21T12:35:59.797Z,18.18
2023-03-21T12:38:40.696Z,17.60
2023-03-21T12:41:23.522Z,17.67
2023-03-21T12:43:52.805Z,17.40
2023-03-21T12:46:26.816Z,16.84
2023-03-21T12:49:03.034Z,17.07
2023-03-21T12:51:33.996Z,17.27
2023-03-21T12:54:06.358Z,17.70
2023-03-21T12:56:55.331Z,17.91
2023-03-21T12:59:42.345Z,18.07
2023-03-21T13:02:32.275Z,17.99
2023-03-21T13:05:05.995Z,17.35
2023-03-21T13:07:35.137Z,17.79
2023-03-21T13:10:04.781Z,17.44
2023-03-21T13:12:43.310Z,17.86
2023-03-21T13:15:30.892Z,17.88
2023-03-21T13:18:37.518Z,17.66
2023-03-21T13:21:25.942Z,17.70
2023-03-21T13:24:18.409Z,17.63
2023-03-21T13:26:50.046Z,18.02
2023-03-21T13:29:29.663Z,17.67
2023-03-21T13:32:05.812Z,17.60
2023-03-21T13:34:33.216Z,17.77
2023-03-21T13:37:00.824Z,17.85
2023-03-21T13:39:28.773Z,17.29
2023-03-21T13:41:56.575Z,17.37
2023-03-21T13:44:32.049Z,17.79
2023-03-21T13:47:04.356Z,17.60
2023-03-21T13:49:36.070Z,17.84
2023-03-21T13:52:27.486Z,17.53
2023-03-21T13:54:56.241Z,17.77
2023-03-21T13:57:30.479Z,17.39
2023-03-21T14:00:15.543Z,17.85
2023-03-21T14:03:08.532Z,17.87
2023-03-21T14:05:37.603Z,18.26
2023-03-21T14:08:15.752Z,18.22
2023-03-21T14:10:49.046Z,18.53
2023-03-21T14:13:19.480Z,18.42
2023-03-21T14:15:55.929Z,18.48
2023-03-21T14:18:35.296Z,18.50
2023-03-21T14:21:23.707Z,18.44
2023-03-21T14:24:05.148Z,18.07
2023-03-21T14:26:37.823Z,17.93
2023-03-21T14:29:09.619Z,17.54
2023-03-21T14:31:43.004Z,18.23
2023-03-21T14:34:10.654Z,17.78
2023-03-21T14:36:38.987Z,17.64
2023-03-21T14:39:31.491Z,17.46
2023-03-21T14:42:13.676Z,17.65
2023-03-21T14:44:54.519Z,18.20
2023-03-21T14:47:27.810Z,17.35
2023-03-21T14:49:56.389Z,17.11
2023-03-21T14:52:26.017Z,16.95
2023-03-21T14:54:53.506Z,17.08
2023-03-21T14:57:22.981Z,17.16
2023-03-21T14:59:51.995Z,17.49
2023-03-21T15:02:32.978Z,17.10
2023-03-21T15:05:21.990Z,17.13
2023-03-21T15:07:56.838Z,17.58
2023-03-21T15:10:25.267Z,17.67
2023-03-21T15:13:03.274Z,17.54
2023-03-21T15:15:31.272Z,17.47
2023-03-21T15:18:02.994Z,18.15
2023-03-21T15:20:40.056Z,17.80
2023-03-21T15:23:12.763Z,17.72
2023-03-21T15:25:40.834Z,17.40
2023-03-21T15:28:08.420Z,17.14
2023-03-21T15:30:36.037Z,17.15
2023-03-21T15:33:09.239Z,17.16
2023-03-21T15:35:41.528Z,17.33
2023-03-21T15:38:22.396Z,16.78
2023-03-21T15:40:49.758Z,17.15
2023-03-21T15:43:18.723Z,16.71
2023-03-21T15:45:55.761Z,17.22
2023-03-21T15:48:27.881Z,16.92
2023-03-21T15:50:55.129Z,16.50
2023-03-21T15:53:23.374Z,16.59
2023-03-21T15:55:57.004Z,17.04
2023-03-21T15:58:36.053Z,16.47
2023-03-21T16:01:08.536Z,16.79
2023-03-21T16:03:37.244Z,16.27
2023-03-21T16:06:16.619Z,16.42
2023-03-21T16:08:50.147Z,16.65
2023-03-21T16:11:25.645Z,16.97
2023-03-21T16:13:53.494Z,16.17
2023-03-21T16:16:28.332Z,17.15
2023-03-21T16:18:56.709Z,16.88
2023-03-21T16:21:26.512Z,16.69
2023-03-21T16:23:53.910Z,16.50
2023-03-21T16:26:23.334Z,17.05
2023-03-21T16:28:50.903Z,16.33
2023-03-21T16:31:20.884Z,16.25
2023-03-21T16:33:48.850Z,16.59
2023-03-21T16:36:24.191Z,16.02
2023-03-21T16:38:52.759Z,16.59
2023-03-21T16:41:20.367Z,16.72
2023-03-21T16:43:47.854Z,16.14
2023-03-21T16:46:25.417Z,16.63
2023-03-21T16:48:57.990Z,16.09
2023-03-21T16:51:33.340Z,15.93
2023-03-21T16:54:00.970Z,15.84
2023-03-21T16:56:37.525Z,16.08
2023-03-21T16:59:05.992Z,15.68
2023-03-21T17:01:35.921Z,16.08
2023-03-21T17:04:03.364Z,16.42
2023-03-21T17:06:31.003Z,15.72
2023-03-21T17:08:58.835Z,15.76
2023-03-21T17:11:26.769Z,15.88
2023-03-21T17:13:54.574Z,15.70
2023-03-21T17:16:26.576Z,15.72
2023-03-21T17:18:54.514Z,15.79
2023-03-21T17:21:26.570Z,15.51
2023-03-21T17:23:53.944Z,15.76
2023-03-21T17:26:23.508Z,15.95
2023-03-21T17:28:55.248Z,16.02
2023-03-21T17:31:24.039Z,16.06
2023-03-21T17:33:51.427Z,16.13
2023-03-21T17:36:27.045Z,16.02
2023-03-21T17:38:55.429Z,16.23
2023-03-21T17:41:22.825Z,16.25
2023-03-21T17:43:51.617Z,16.15
2023-03-21T17:46:21.120Z,15.85
2023-03-21T17:48:48.670Z,15.74
2023-03-21T17:51:17.115Z,15.55
2023-03-21T17:53:45.502Z,15.77
2023-03-21T17:56:16.742Z,15.49
2023-03-21T17:58:44.104Z,15.66
2023-03-21T18:01:11.824Z,15.74
2023-03-21T18:03:39.437Z,15.69
2023-03-21T18:06:07.118Z,15.66
2023-03-21T18:08:34.477Z,14.76
2023-03-21T18:11:02.138Z,15.17
2023-03-21T18:13:29.495Z,14.77
2023-03-21T18:15:56.941Z,14.86
2023-03-21T18:18:27.134Z,15.17
2023-03-21T18:20:57.540Z,15.39
2023-03-21T18:23:25.466Z,15.29
2023-03-21T18:25:53.065Z,15.35
2023-03-21T18:28:21.384Z,15.39
2023-03-21T18:31:07.418Z,15.40
2023-03-21T18:33:40.353Z,15.25
2023-03-21T18:36:09.247Z,15.12
2023-03-21T18:38:37.082Z,15.08
2023-03-21T18:41:05.531Z,15.00
2023-03-21T18:46:21.110Z,15.05
2023-03-21T18:48:49.212Z,14.49
2023-03-21T18:51:17.772Z,14.63
2023-03-21T18:53:45.757Z,14.65
2023-03-21T18:56:36.898Z,14.35
2023-03-21T18:59:01.884Z,14.59
2023-03-21T19:01:29.794Z,14.42
2023-03-21T19:04:20.467Z,14.52
2023-03-21T19:06:47.879Z,14.43
2023-03-21T19:09:15.252Z,14.41
2023-03-21T19:11:42.865Z,14.43
2023-03-21T19:14:11.616Z,14.49
2023-03-21T19:17:02.099Z,14.35
2023-03-21T19:19:26.998Z,14.17
2023-03-21T19:21:54.496Z,14.10
2023-03-21T19:24:27.613Z,13.87
2023-03-21T19:26:56.464Z,13.57
2023-03-21T19:29:23.878Z,13.73
2023-03-21T19:31:51.613Z,13.73
2023-03-21T19:34:19.520Z,13.78
2023-03-21T19:36:51.509Z,13.94
2023-03-21T19:39:22.611Z,13.74
2023-03-21T19:41:50.980Z,13.95
2023-03-21T19:44:19.170Z,13.82
2023-03-21T19:46:48.411Z,13.92
2023-03-21T19:49:20.123Z,13.99
2023-03-21T19:51:47.977Z,14.09
2023-03-21T19:54:17.371Z,14.22
2023-03-21T19:56:47.559Z,13.96
2023-03-21T19:59:15.848Z,14.09
2023-03-21T20:01:44.264Z,13.91
2023-03-21T20:04:12.233Z,13.92
2023-03-21T20:06:39.675Z,13.89
2023-03-21T20:11:57.731Z,13.94
2023-03-21T20:14:25.272Z,13.97
2023-03-21T20:16:55.307Z,13.99
2023-03-21T20:19:23.156Z,13.82
2023-03-21T20:21:58.014Z,14.01
2023-03-21T20:24:27.479Z,13.81
2023-03-21T20:26:55.624Z,13.93
2023-03-21T20:32:11.557Z,13.97
2023-03-21T20:34:39.355Z,14.03
2023-03-21T20:37:07.102Z,14.18
2023-03-21T20:39:34.807Z,13.97
2023-03-21T20:42:02.500Z,13.94
2023-03-21T20:44:57.963Z,13.98
2023-03-21T20:47:17.572Z,14.05
2023-03-21T20:49:45.282Z,14.05
2023-03-21T20:52:52.117Z,13.99
2023-03-21T20:55:00.308Z,13.76
2023-03-21T20:57:27.748Z,13.79
2023-03-21T20:59:55.177Z,13.54
2023-03-21T21:02:23.042Z,13.62
2023-03-21T21:05:17.720Z,13.64
2023-03-21T21:07:43.177Z,13.61
2023-03-21T21:10:11.875Z,13.58
2023-03-21T21:12:39.545Z,13.34
2023-03-21T21:15:08.196Z,13.38
2023-03-21T21:18:02.029Z,13.03
2023-03-21T21:20:23.224Z,13.26
2023-03-21T21:23:00.557Z,13.13
2023-03-21T21:25:29.376Z,12.91
2023-03-21T21:27:56.784Z,12.78
2023-03-21T21:30:24.173Z,12.69
2023-03-21T21:32:51.831Z,12.70
2023-03-21T21:35:20.589Z,12.68
2023-03-21T21:37:48.854Z,12.33
2023-03-21T21:40:20.402Z,12.53
2023-03-21T21:42:47.966Z,12.51
2023-03-21T21:45:15.943Z,12.26
2023-03-21T21:47:43.926Z,12.38
2023-03-21T21:50:11.417Z,12.33
2023-03-21T21:52:39.042Z,12.18
2023-03-21T21:55:06.733Z,12.10
2023-03-21T21:57:34.587Z,11.91
2023-03-21T22:00:06.502Z,12.24
2023-03-21T22:02:39.754Z,11.80
2023-03-21T22:05:08.808Z,12.34
2023-03-21T22:07:37.515Z,12.44
2023-03-21T22:10:05.397Z,12.32
2023-03-21T22:12:33.024Z,12.66
2023-03-21T22:15:00.489Z,12.90
2023-03-21T22:17:27.853Z,12.71
2023-03-21T22:20:05.097Z,12.52
2023-03-21T22:22:34.038Z,12.01
2023-03-21T22:25:02.113Z,12.53
2023-03-21T22:27:29.501Z,12.85
2023-03-21T22:29:56.890Z,12.88
2023-03-21T22:32:24.611Z,12.73
2023-03-21T22:34:51.957Z,12.74
2023-03-21T22:37:19.308Z,13.06
2023-03-21T22:39:46.966Z,13.20
2023-03-21T22:42:14.308Z,13.24
2023-03-21T22:44:41.663Z,13.33
2023-03-21T22:47:09.961Z,13.40
2023-03-21T22:49:37.952Z,13.01
2023-03-21T22:52:06.028Z,13.15
2023-03-21T22:54:33.660Z,13.27
2023-03-21T22:57:01.050Z,12.58
2023-03-21T22:59:28.638Z,12.97
2023-03-21T23:01:56.721Z,12.90
2023-03-21T23:04:25.056Z,12.97
2023-03-21T23:06:52.487Z,13.19
2023-03-21T23:09:20.482Z,12.86
2023-03-21T23:11:49.573Z,12.40
2023-03-21T23:14:17.488Z,12.64
2023-03-21T23:16:45.174Z,11.73
2023-03-21T23:19:12.510Z,12.25
2023-03-21T23:21:39.909Z,12.64
2023-03-21T23:24:07.938Z,12.44
2023-03-21T23:26:35.277Z,12.30
2023-03-21T23:29:03.875Z,12.54
2023-03-21T23:31:33.047Z,12.65
2023-03-21T23:34:00.640Z,12.43
2023-03-21T23:36:28.154Z,12.60
2023-03-21T23:38:55.761Z,12.35
2023-03-21T23:41:26.010Z,12.58
2023-03-21T23:43:53.455Z,12.61
2023-03-21T23:46:21.135Z,12.54
2023-03-21T23:48:48.619Z,12.57
2023-03-21T23:51:16.524Z,12.65
2023-03-21T23:53:45.246Z,12.60
2023-03-21T23:56:17.579Z,12.78
2023-03-21T23:58:45.590Z,12.60
